createdAt,value
2016-08-08T00:00:32.492Z,0
2016-08-08T00:01:33.184Z,0
2016-08-08T00:02:32.437Z,0
2016-08-08T00:03:32.484Z,0
2016-08-08T00:04:32.535Z,0
2016-08-08T00:05:32.587Z,0
2016-08-08T00:06:32.474Z,0
2016-08-08T00:07:32.453Z,0
2016-08-08T00:08:32.452Z,0
2016-08-08T00:09:32.455Z,0
2016-08-08T00:10:32.521Z,0
2016-08-08T00:12:32.466Z,0
2016-08-08T00:13:32.462Z,0
2016-08-08T00:14:32.458Z,0
2016-08-08T00:15:32.481Z,0
2016-08-08T00:16:32.465Z,0
2016-08-08T00:17:32.480Z,0
2016-08-08T00:18:32.481Z,0
2016-08-08T00:19:32.480Z,0
2016-08-08T00:20:32.487Z,0
2016-08-08T00:21:32.500Z,0
2016-08-08T00:22:32.480Z,0
2016-08-08T00:23:32.481Z,0
2016-08-08T00:24:33.192Z,0
2016-08-08T00:25:32.551Z,0
2016-08-08T00:26:32.486Z,0
2016-08-08T00:27:32.503Z,0
2016-08-08T00:28:32.487Z,0
2016-08-08T00:29:32.494Z,0
2016-08-08T00:30:32.509Z,0
2016-08-08T00:31:32.510Z,0
2016-08-08T00:32:32.500Z,0
2016-08-08T00:33:32.500Z,0
2016-08-08T00:34:32.504Z,0
2016-08-08T00:35:33.212Z,0
2016-08-08T00:36:32.498Z,0
2016-08-08T00:37:32.515Z,0
2016-08-08T00:38:32.546Z,0
2016-08-08T00:39:32.534Z,0
2016-08-08T00:40:32.627Z,0
2016-08-08T00:41:32.507Z,0
2016-08-08T00:42:32.513Z,0
2016-08-08T00:43:32.517Z,0
2016-08-08T00:44:32.516Z,0
2016-08-08T00:45:32.560Z,0
2016-08-08T00:46:32.518Z,0
2016-08-08T00:47:32.533Z,0
2016-08-08T00:48:32.531Z,0
2016-08-08T00:49:32.529Z,0
2016-08-08T00:50:33.317Z,0
2016-08-08T00:51:32.539Z,0
2016-08-08T00:52:32.535Z,0
2016-08-08T00:53:32.586Z,0
2016-08-08T00:54:32.530Z,0
2016-08-08T00:55:32.543Z,0
2016-08-08T00:56:32.539Z,0
2016-08-08T00:57:32.537Z,0
2016-08-08T00:58:32.558Z,0
2016-08-08T00:59:32.556Z,0
2016-08-08T01:00:32.615Z,0
2016-08-08T01:01:32.557Z,0
2016-08-08T01:02:32.555Z,0
2016-08-08T01:03:32.558Z,0
2016-08-08T01:04:32.558Z,0
2016-08-08T01:05:32.673Z,0
2016-08-08T01:06:33.269Z,0
2016-08-08T01:07:32.558Z,0
2016-08-08T01:08:32.560Z,0
2016-08-08T01:09:33.275Z,0
2016-08-08T01:10:32.653Z,0
2016-08-08T01:11:33.274Z,0
2016-08-08T01:12:32.571Z,0
2016-08-08T01:13:32.582Z,0
2016-08-08T01:14:32.645Z,0
2016-08-08T01:15:32.673Z,0
2016-08-08T01:16:32.579Z,0
2016-08-08T01:17:32.573Z,0
2016-08-08T01:18:32.584Z,0
2016-08-08T01:19:32.587Z,0
2016-08-08T01:20:32.644Z,0
2016-08-08T01:21:32.578Z,0
2016-08-08T01:22:32.577Z,0
2016-08-08T01:23:32.579Z,0
2016-08-08T01:24:32.583Z,0
2016-08-08T01:25:32.584Z,0
2016-08-08T01:26:32.586Z,0
2016-08-08T01:27:32.588Z,0
2016-08-08T01:28:32.593Z,0
2016-08-08T01:29:32.596Z,0
2016-08-08T01:30:32.612Z,0
2016-08-08T01:31:32.598Z,0
2016-08-08T01:32:32.593Z,0
2016-08-08T01:33:33.301Z,0
2016-08-08T01:34:32.600Z,0
2016-08-08T01:35:32.618Z,0
2016-08-08T01:36:32.594Z,0
2016-08-08T01:37:32.607Z,0
2016-08-08T01:38:33.313Z,0
2016-08-08T01:39:32.601Z,0
2016-08-08T01:40:32.611Z,0
2016-08-08T01:41:32.599Z,0
2016-08-08T01:42:32.608Z,0
2016-08-08T01:43:32.616Z,0
2016-08-08T01:44:32.606Z,0
2016-08-08T01:45:33.357Z,0
2016-08-08T01:46:32.623Z,0
2016-08-08T01:47:32.673Z,0
2016-08-08T01:48:32.675Z,0
2016-08-08T01:49:32.626Z,0
2016-08-08T01:50:32.693Z,0
2016-08-08T01:51:32.628Z,0
2016-08-08T01:52:32.628Z,0
2016-08-08T01:53:32.671Z,0
2016-08-08T01:54:32.618Z,0
2016-08-08T01:55:32.675Z,0
2016-08-08T01:56:32.631Z,0
2016-08-08T01:57:33.369Z,0
2016-08-08T01:58:32.672Z,0
2016-08-08T01:59:32.637Z,0
2016-08-08T02:00:32.662Z,0
2016-08-08T02:01:32.641Z,0
2016-08-08T02:02:32.639Z,0
2016-08-08T02:03:32.639Z,0
2016-08-08T02:04:32.658Z,0
2016-08-08T02:05:33.394Z,0
2016-08-08T02:06:32.647Z,0
2016-08-08T02:07:33.364Z,0
2016-08-08T02:08:32.653Z,0
2016-08-08T02:09:32.654Z,0
2016-08-08T02:10:32.713Z,0
2016-08-08T02:11:32.659Z,0
2016-08-08T02:12:32.669Z,0
2016-08-08T02:13:32.660Z,0
2016-08-08T02:14:33.361Z,0
2016-08-08T02:15:32.675Z,0
2016-08-08T02:16:32.664Z,0
2016-08-08T02:17:33.378Z,0
2016-08-08T02:18:32.679Z,0
2016-08-08T02:19:32.697Z,0
2016-08-08T02:20:33.440Z,0
2016-08-08T02:21:33.400Z,0
2016-08-08T02:22:32.679Z,0
2016-08-08T02:23:33.366Z,0
2016-08-08T02:24:32.671Z,0
2016-08-08T02:25:32.687Z,0
2016-08-08T02:26:32.669Z,0
2016-08-08T02:27:32.698Z,0
2016-08-08T02:28:32.684Z,0
2016-08-08T02:29:32.671Z,0
2016-08-08T02:30:32.692Z,0
2016-08-08T02:31:32.677Z,0
2016-08-08T02:32:32.679Z,0
2016-08-08T02:33:32.674Z,0
2016-08-08T02:34:32.678Z,0
2016-08-08T02:35:32.737Z,0
2016-08-08T02:36:32.682Z,0
2016-08-08T02:37:32.702Z,0
2016-08-08T02:38:33.391Z,0
2016-08-08T02:39:33.391Z,0
2016-08-08T02:40:32.751Z,0
2016-08-08T02:41:32.695Z,0
2016-08-08T02:42:32.687Z,0
2016-08-08T02:43:32.701Z,0
2016-08-08T02:44:32.689Z,0
2016-08-08T02:45:32.721Z,0
2016-08-08T02:46:32.690Z,0
2016-08-08T02:47:32.708Z,0
2016-08-08T02:48:32.699Z,0
2016-08-08T02:49:32.718Z,0
2016-08-08T02:50:32.734Z,0
2016-08-08T02:51:32.696Z,0
2016-08-08T02:52:33.422Z,0
2016-08-08T02:53:33.454Z,0
2016-08-08T02:54:32.707Z,0
2016-08-08T02:55:32.732Z,0
2016-08-08T02:56:32.709Z,0
2016-08-08T02:57:32.727Z,0
2016-08-08T02:58:33.443Z,0
2016-08-08T02:59:33.433Z,0
2016-08-08T03:00:32.734Z,0
2016-08-08T03:01:32.742Z,0
2016-08-08T03:02:32.739Z,0
2016-08-08T03:03:33.436Z,0
2016-08-08T03:04:33.439Z,0
2016-08-08T03:05:32.811Z,0
2016-08-08T03:06:32.733Z,0
2016-08-08T03:07:32.729Z,0
2016-08-08T03:08:32.737Z,0
2016-08-08T03:09:32.738Z,0
2016-08-08T03:10:32.748Z,0
2016-08-08T03:11:32.743Z,0
2016-08-08T03:12:32.728Z,0
2016-08-08T03:13:32.737Z,0
2016-08-08T03:14:32.731Z,0
2016-08-08T03:15:32.841Z,0
2016-08-08T03:16:32.747Z,0
2016-08-08T03:17:32.742Z,0
2016-08-08T03:18:32.738Z,0
2016-08-08T03:19:32.742Z,0
2016-08-08T03:20:32.776Z,0
2016-08-08T03:21:32.742Z,0
2016-08-08T03:22:32.739Z,0
2016-08-08T03:23:32.759Z,0
2016-08-08T03:24:32.740Z,0
2016-08-08T03:25:32.826Z,0
2016-08-08T03:26:32.756Z,0
2016-08-08T03:27:32.754Z,0
2016-08-08T03:28:33.450Z,0
2016-08-08T03:29:32.748Z,0
2016-08-08T03:30:32.762Z,0
2016-08-08T03:31:32.746Z,0
2016-08-08T03:32:32.748Z,0
2016-08-08T03:33:32.757Z,0
2016-08-08T03:34:33.456Z,0
2016-08-08T03:35:33.581Z,0
2016-08-08T03:36:33.462Z,0
2016-08-08T03:37:32.752Z,0
2016-08-08T03:38:32.755Z,0
2016-08-08T03:39:32.751Z,0
2016-08-08T03:40:32.799Z,0
2016-08-08T03:41:32.750Z,0
2016-08-08T03:42:32.811Z,0
2016-08-08T03:43:33.464Z,0
2016-08-08T03:44:32.753Z,0
2016-08-08T03:45:32.770Z,0
2016-08-08T03:46:32.751Z,0
2016-08-08T03:47:32.763Z,0
2016-08-08T03:48:32.785Z,0
2016-08-08T03:49:32.758Z,0
2016-08-08T03:50:32.846Z,0
2016-08-08T03:51:32.757Z,0
2016-08-08T03:52:32.753Z,0
2016-08-08T03:53:33.777Z,0
2016-08-08T03:54:32.765Z,0
2016-08-08T03:55:32.802Z,0
2016-08-08T03:56:32.770Z,0
2016-08-08T03:57:32.781Z,0
2016-08-08T03:58:33.470Z,5
2016-08-08T03:59:32.757Z,5
2016-08-08T04:00:32.778Z,5
2016-08-08T04:01:32.757Z,5
2016-08-08T04:02:32.765Z,5
2016-08-08T04:03:33.477Z,5
2016-08-08T04:04:32.771Z,5
2016-08-08T04:05:33.577Z,5
2016-08-08T04:06:32.782Z,10
2016-08-08T04:07:32.760Z,10
2016-08-08T04:08:32.760Z,10
2016-08-08T04:09:32.768Z,10
2016-08-08T04:10:32.779Z,10
2016-08-08T04:11:32.764Z,15
2016-08-08T04:12:32.810Z,15
2016-08-08T04:13:32.770Z,15
2016-08-08T04:14:32.766Z,15
2016-08-08T04:15:32.836Z,20
2016-08-08T04:16:32.769Z,20
2016-08-08T04:17:32.766Z,20
2016-08-08T04:18:32.771Z,20
2016-08-08T04:19:32.770Z,25
2016-08-08T04:20:32.771Z,25
2016-08-08T04:21:32.767Z,25
2016-08-08T04:22:32.774Z,25
2016-08-08T04:23:32.767Z,30
2016-08-08T04:24:32.771Z,30
2016-08-08T04:25:32.784Z,30
2016-08-08T04:26:32.774Z,30
2016-08-08T04:28:32.786Z,35
2016-08-08T04:29:32.777Z,35
2016-08-08T04:30:32.847Z,40
2016-08-08T04:31:32.776Z,40
2016-08-08T04:32:32.784Z,40
2016-08-08T04:33:32.783Z,45
2016-08-08T04:34:32.784Z,50
2016-08-08T04:35:32.786Z,70
2016-08-08T04:36:32.779Z,85
2016-08-08T04:37:32.786Z,90
2016-08-08T04:38:32.781Z,95
2016-08-08T04:39:32.783Z,95
2016-08-08T04:40:32.858Z,100
2016-08-08T04:41:32.782Z,105
2016-08-08T04:43:33.524Z,115
2016-08-08T04:44:32.788Z,115
2016-08-08T04:45:32.813Z,120
2016-08-08T04:46:32.805Z,120
2016-08-08T04:47:32.794Z,125
2016-08-08T04:48:32.794Z,130
2016-08-08T04:49:32.801Z,130
2016-08-08T04:50:32.851Z,135
2016-08-08T04:51:32.805Z,145
2016-08-08T04:52:32.802Z,150
2016-08-08T04:53:33.006Z,155
2016-08-08T04:54:32.817Z,160
2016-08-08T04:55:32.822Z,165
2016-08-08T04:56:32.806Z,170
2016-08-08T04:58:32.824Z,175
2016-08-08T04:59:32.817Z,180
2016-08-08T05:00:32.836Z,185
2016-08-08T05:01:32.824Z,185
2016-08-08T05:02:32.841Z,185
2016-08-08T05:03:32.841Z,180
2016-08-08T05:04:32.841Z,185
2016-08-08T05:05:32.921Z,190
2016-08-08T05:06:32.844Z,200
2016-08-08T05:07:32.867Z,205
2016-08-08T05:08:33.546Z,210
2016-08-08T05:09:32.853Z,210
2016-08-08T05:10:32.877Z,210
2016-08-08T05:11:32.858Z,215
2016-08-08T05:13:32.871Z,215
2016-08-08T05:14:32.858Z,215
2016-08-08T05:15:32.868Z,215
2016-08-08T05:16:32.864Z,215
2016-08-08T05:17:32.871Z,215
2016-08-08T05:18:32.878Z,220
2016-08-08T05:19:33.591Z,215
2016-08-08T05:20:32.983Z,215
2016-08-08T05:21:32.889Z,215
2016-08-08T05:22:32.888Z,215
2016-08-08T05:23:32.893Z,220
2016-08-08T05:24:32.909Z,210
2016-08-08T05:25:32.922Z,215
2016-08-08T05:26:32.899Z,215
2016-08-08T05:28:32.921Z,205
2016-08-08T05:29:32.939Z,190
2016-08-08T05:30:32.953Z,165
2016-08-08T05:31:32.952Z,150
2016-08-08T05:32:33.653Z,140
2016-08-08T05:33:32.945Z,135
2016-08-08T05:34:34.360Z,135
2016-08-08T05:35:32.957Z,135
2016-08-08T05:36:32.962Z,135
2016-08-08T05:37:32.952Z,135
2016-08-08T05:38:32.952Z,140
2016-08-08T05:39:32.968Z,135
2016-08-08T05:40:33.068Z,135
2016-08-08T05:41:32.979Z,140
2016-08-08T05:42:32.977Z,140
2016-08-08T05:43:32.980Z,140
2016-08-08T05:44:32.979Z,145
2016-08-08T05:45:32.992Z,140
2016-08-08T05:46:32.982Z,145
2016-08-08T05:47:32.992Z,145
2016-08-08T05:48:33.013Z,145
2016-08-08T05:49:32.987Z,145
2016-08-08T05:50:33.103Z,145
2016-08-08T05:51:33.014Z,145
2016-08-08T05:52:33.011Z,145
2016-08-08T05:53:33.056Z,145
2016-08-08T05:54:33.020Z,140
2016-08-08T05:55:33.042Z,140
2016-08-08T05:56:33.016Z,140
2016-08-08T05:57:33.017Z,145
2016-08-08T05:58:33.015Z,160
2016-08-08T05:59:33.019Z,185
2016-08-08T06:00:33.113Z,205
2016-08-08T06:01:33.027Z,215
2016-08-08T06:02:33.027Z,225
2016-08-08T06:03:33.034Z,235
2016-08-08T06:04:33.037Z,235
2016-08-08T06:05:33.775Z,235
2016-08-08T06:06:33.058Z,220
2016-08-08T06:07:33.062Z,195
2016-08-08T06:08:33.768Z,185
2016-08-08T06:09:33.074Z,175
2016-08-08T06:10:33.167Z,170
2016-08-08T06:11:33.063Z,170
2016-08-08T06:12:33.068Z,170
2016-08-08T06:13:33.075Z,170
2016-08-08T06:14:33.082Z,175
2016-08-08T06:15:33.090Z,185
2016-08-08T06:16:33.082Z,195
2016-08-08T06:17:33.107Z,210
2016-08-08T06:18:33.098Z,240
2016-08-08T06:19:33.096Z,240
2016-08-08T06:20:33.210Z,250
2016-08-08T06:21:33.102Z,270
2016-08-08T06:22:33.122Z,280
2016-08-08T06:23:33.128Z,285
2016-08-08T06:24:33.107Z,290
2016-08-08T06:25:33.141Z,290
2016-08-08T06:26:33.125Z,295
2016-08-08T06:27:33.128Z,295
2016-08-08T06:28:33.856Z,295
2016-08-08T06:29:33.138Z,295
2016-08-08T06:30:33.197Z,300
2016-08-08T06:31:33.849Z,295
2016-08-08T06:32:33.147Z,300
2016-08-08T06:33:33.159Z,300
2016-08-08T06:34:33.160Z,300
2016-08-08T06:35:33.211Z,305
2016-08-08T06:36:33.169Z,305
2016-08-08T06:37:33.179Z,305
2016-08-08T06:38:33.202Z,310
2016-08-08T06:39:33.187Z,310
2016-08-08T06:40:33.230Z,310
2016-08-08T06:41:33.200Z,310
2016-08-08T06:42:33.225Z,310
2016-08-08T06:43:33.222Z,315
2016-08-08T06:44:33.225Z,310
2016-08-08T06:45:33.328Z,310
2016-08-08T06:46:33.243Z,310
2016-08-08T06:47:33.948Z,310
2016-08-08T06:48:33.971Z,310
2016-08-08T06:49:33.292Z,320
2016-08-08T06:50:33.305Z,315
2016-08-08T06:51:33.285Z,320
2016-08-08T06:52:33.304Z,315
2016-08-08T06:53:33.340Z,315
2016-08-08T06:54:33.299Z,315
2016-08-08T06:55:33.350Z,320
2016-08-08T06:56:33.326Z,320
2016-08-08T06:57:33.317Z,320
2016-08-08T06:58:33.317Z,320
2016-08-08T06:59:34.047Z,325
2016-08-08T07:00:33.380Z,325
2016-08-08T07:01:33.369Z,320
2016-08-08T07:02:33.371Z,320
2016-08-08T07:03:34.073Z,320
2016-08-08T07:04:34.080Z,320
2016-08-08T07:05:33.511Z,325
2016-08-08T07:06:33.388Z,325
2016-08-08T07:07:33.384Z,325
2016-08-08T07:08:33.390Z,325
2016-08-08T07:09:33.432Z,325
2016-08-08T07:10:34.136Z,325
2016-08-08T07:11:33.434Z,325
2016-08-08T07:12:33.437Z,325
2016-08-08T07:13:33.442Z,325
2016-08-08T07:14:34.194Z,325
2016-08-08T07:15:33.546Z,325
2016-08-08T07:16:33.461Z,325
2016-08-08T07:17:33.485Z,330
2016-08-08T07:18:33.485Z,330
2016-08-08T07:19:33.486Z,330
2016-08-08T07:20:33.608Z,330
2016-08-08T07:21:34.222Z,330
2016-08-08T07:22:33.506Z,330
2016-08-08T07:23:33.549Z,330
2016-08-08T07:24:33.532Z,330
2016-08-08T07:25:33.532Z,335
2016-08-08T07:26:33.557Z,330
2016-08-08T07:27:33.558Z,335
2016-08-08T07:28:33.556Z,335
2016-08-08T07:29:33.572Z,335
2016-08-08T07:30:33.576Z,335
2016-08-08T07:31:33.596Z,335
2016-08-08T07:32:33.606Z,335
2016-08-08T07:33:33.605Z,335
2016-08-08T07:34:33.614Z,335
2016-08-08T07:35:33.725Z,340
2016-08-08T07:36:33.639Z,335
2016-08-08T07:37:33.646Z,310
2016-08-08T07:38:34.353Z,310
2016-08-08T07:39:33.653Z,315
2016-08-08T07:40:33.670Z,325
2016-08-08T07:41:33.699Z,325
2016-08-08T07:42:33.698Z,325
2016-08-08T07:43:33.711Z,325
2016-08-08T07:44:33.706Z,325
2016-08-08T07:45:33.713Z,325
2016-08-08T07:46:33.727Z,325
2016-08-08T07:47:33.736Z,330
2016-08-08T07:48:33.745Z,330
2016-08-08T07:49:33.791Z,325
2016-08-08T07:50:33.775Z,300
2016-08-08T07:51:33.777Z,275
2016-08-08T07:52:33.784Z,265
2016-08-08T07:53:33.855Z,255
2016-08-08T07:54:33.794Z,245
2016-08-08T07:55:33.884Z,255
2016-08-08T07:56:33.813Z,270
2016-08-08T07:57:34.539Z,285
2016-08-08T07:58:33.836Z,290
2016-08-08T07:59:34.539Z,290
2016-08-08T08:00:33.893Z,305
2016-08-08T08:01:33.866Z,305
2016-08-08T08:02:33.856Z,305
2016-08-08T08:03:33.878Z,305
2016-08-08T08:04:33.889Z,305
2016-08-08T08:05:33.962Z,305
2016-08-08T08:06:33.894Z,305
2016-08-08T08:07:33.905Z,305
2016-08-08T08:08:33.910Z,305
2016-08-08T08:09:33.927Z,305
2016-08-08T08:10:34.072Z,305
2016-08-08T08:11:33.940Z,305
2016-08-08T08:12:33.952Z,305
2016-08-08T08:13:33.947Z,305
2016-08-08T08:14:33.965Z,305
2016-08-08T08:15:33.971Z,305
2016-08-08T08:16:33.981Z,305
2016-08-08T08:17:34.702Z,300
2016-08-08T08:18:34.009Z,300
2016-08-08T08:19:34.009Z,295
2016-08-08T08:20:34.091Z,295
2016-08-08T08:21:34.023Z,295
2016-08-08T08:22:34.031Z,290
2016-08-08T08:23:34.047Z,290
2016-08-08T08:24:34.067Z,290
2016-08-08T08:25:34.069Z,285
2016-08-08T08:26:34.076Z,285
2016-08-08T08:27:34.096Z,285
2016-08-08T08:28:34.103Z,290
2016-08-08T08:29:34.109Z,285
2016-08-08T08:30:34.113Z,280
2016-08-08T08:31:34.119Z,280
2016-08-08T08:32:34.124Z,280
2016-08-08T08:33:34.152Z,285
2016-08-08T08:34:34.144Z,275
2016-08-08T08:35:34.212Z,275
2016-08-08T08:36:34.179Z,275
2016-08-08T08:37:34.172Z,275
2016-08-08T08:38:34.183Z,280
2016-08-08T08:39:34.906Z,270
2016-08-08T08:40:34.326Z,270
2016-08-08T08:41:34.215Z,265
2016-08-08T08:42:34.239Z,265
2016-08-08T08:44:34.250Z,260
2016-08-08T08:45:34.250Z,265
2016-08-08T08:46:34.268Z,270
2016-08-08T08:47:34.273Z,260
2016-08-08T08:48:34.303Z,260
2016-08-08T08:49:34.296Z,260
2016-08-08T08:50:34.323Z,260
2016-08-08T08:51:34.333Z,260
2016-08-08T08:52:34.325Z,260
2016-08-08T08:53:34.383Z,260
2016-08-08T08:54:34.363Z,260
2016-08-08T08:55:34.446Z,260
2016-08-08T08:56:34.362Z,255
2016-08-08T08:57:34.397Z,255
2016-08-08T08:58:34.417Z,250
2016-08-08T08:59:34.388Z,245
2016-08-08T09:00:34.521Z,245
2016-08-08T09:01:34.418Z,245
2016-08-08T09:02:34.419Z,240
2016-08-08T09:03:34.423Z,240
2016-08-08T09:04:34.431Z,240
2016-08-08T09:05:35.231Z,235
2016-08-08T09:06:34.447Z,235
2016-08-08T09:07:34.467Z,235
2016-08-08T09:08:34.485Z,235
2016-08-08T09:09:35.179Z,230
2016-08-08T09:10:34.560Z,235
2016-08-08T09:11:34.505Z,230
2016-08-08T09:12:34.494Z,235
2016-08-08T09:13:34.536Z,235
2016-08-08T09:14:35.216Z,225
2016-08-08T09:15:36.748Z,235
2016-08-08T09:16:34.524Z,235
2016-08-08T09:17:34.551Z,235
2016-08-08T09:18:34.541Z,235
2016-08-08T09:19:34.541Z,235
2016-08-08T09:20:34.593Z,235
2016-08-08T09:21:34.554Z,235
2016-08-08T09:22:34.570Z,235
2016-08-08T09:23:34.575Z,235
2016-08-08T09:24:34.578Z,235
2016-08-08T09:25:35.385Z,235
2016-08-08T09:26:34.602Z,235
2016-08-08T09:27:34.594Z,245
2016-08-08T09:28:35.362Z,245
2016-08-08T09:29:35.321Z,245
2016-08-08T09:30:34.718Z,245
2016-08-08T09:31:34.617Z,245
2016-08-08T09:32:34.630Z,245
2016-08-08T09:33:34.625Z,245
2016-08-08T09:34:34.646Z,245
2016-08-08T09:35:34.724Z,245
2016-08-08T09:36:34.646Z,240
2016-08-08T09:37:34.659Z,240
2016-08-08T09:38:35.384Z,240
2016-08-08T09:39:35.435Z,245
2016-08-08T09:40:34.737Z,245
2016-08-08T09:41:35.400Z,250
2016-08-08T09:42:34.689Z,250
2016-08-08T09:44:34.702Z,255
2016-08-08T09:45:34.815Z,260
2016-08-08T09:46:34.716Z,260
2016-08-08T09:47:34.718Z,260
2016-08-08T09:48:34.722Z,255
2016-08-08T09:49:34.735Z,250
2016-08-08T09:50:34.810Z,250
2016-08-08T09:51:34.758Z,255
2016-08-08T09:52:34.772Z,225
2016-08-08T09:53:35.627Z,255
2016-08-08T09:54:34.757Z,190
2016-08-08T09:55:34.822Z,190
2016-08-08T09:56:34.764Z,205
2016-08-08T09:57:34.785Z,265
2016-08-08T09:58:34.816Z,280
2016-08-08T09:59:34.823Z,255
2016-08-08T10:00:34.809Z,290
2016-08-08T10:01:34.802Z,245
2016-08-08T10:02:34.847Z,255
2016-08-08T10:03:34.821Z,265
2016-08-08T10:04:34.826Z,265
2016-08-08T10:05:34.902Z,265
2016-08-08T10:06:34.844Z,270
2016-08-08T10:07:34.848Z,305
2016-08-08T10:08:34.852Z,280
2016-08-08T10:09:36.282Z,325
2016-08-08T10:10:35.591Z,350
2016-08-08T10:11:34.872Z,320
2016-08-08T10:12:34.872Z,355
2016-08-08T10:14:34.884Z,295
2016-08-08T10:15:34.959Z,295
2016-08-08T10:16:34.916Z,325
2016-08-08T10:17:34.941Z,345
2016-08-08T10:18:34.911Z,345
2016-08-08T10:19:34.914Z,345
2016-08-08T10:20:34.976Z,280
2016-08-08T10:21:34.932Z,280
2016-08-08T10:22:34.936Z,275
2016-08-08T10:23:34.938Z,270
2016-08-08T10:24:34.946Z,260
2016-08-08T10:25:35.033Z,250
2016-08-08T10:26:34.961Z,255
2016-08-08T10:27:34.966Z,260
2016-08-08T10:29:35.021Z,325
2016-08-08T10:30:35.049Z,265
2016-08-08T10:31:35.006Z,290
2016-08-08T10:32:34.995Z,265
2016-08-08T10:33:35.009Z,245
2016-08-08T10:34:35.007Z,285
2016-08-08T10:35:35.101Z,255
2016-08-08T10:36:35.043Z,205
2016-08-08T10:37:35.035Z,205
2016-08-08T10:38:35.041Z,225
2016-08-08T10:39:35.795Z,290
2016-08-08T10:40:35.159Z,285
2016-08-08T10:41:35.051Z,245
2016-08-08T10:42:35.079Z,265
2016-08-08T10:44:35.095Z,295
2016-08-08T10:45:35.103Z,305
2016-08-08T10:46:35.097Z,305
2016-08-08T10:47:35.104Z,305
2016-08-08T10:48:35.103Z,305
2016-08-08T10:49:35.117Z,295
2016-08-08T10:50:35.172Z,325
2016-08-08T10:51:35.129Z,320
2016-08-08T10:52:35.132Z,285
2016-08-08T10:53:36.157Z,305
2016-08-08T10:54:35.148Z,355
2016-08-08T10:55:35.190Z,365
2016-08-08T10:56:35.161Z,375
2016-08-08T10:57:35.161Z,375
2016-08-08T10:59:35.177Z,375
2016-08-08T11:00:35.918Z,350
2016-08-08T11:01:35.195Z,375
2016-08-08T11:02:35.909Z,375
2016-08-08T11:03:35.222Z,375
2016-08-08T11:04:35.226Z,315
2016-08-08T11:05:35.285Z,315
2016-08-08T11:06:35.230Z,310
2016-08-08T11:07:35.249Z,310
2016-08-08T11:08:35.240Z,310
2016-08-08T11:09:35.246Z,325
2016-08-08T11:10:35.381Z,320
2016-08-08T11:11:35.329Z,315
2016-08-08T11:12:35.273Z,300
2016-08-08T11:13:35.282Z,320
2016-08-08T11:14:35.297Z,310
2016-08-08T11:15:35.308Z,305
2016-08-08T11:16:35.298Z,355
2016-08-08T11:17:35.330Z,320
2016-08-08T11:18:36.057Z,345
2016-08-08T11:19:35.341Z,315
2016-08-08T11:20:35.339Z,370
2016-08-08T11:21:35.338Z,360
2016-08-08T11:22:35.339Z,340
2016-08-08T11:23:35.346Z,365
2016-08-08T11:24:35.362Z,315
2016-08-08T11:25:35.401Z,355
2016-08-08T11:26:35.389Z,370
2016-08-08T11:27:35.381Z,355
2016-08-08T11:28:35.750Z,370
2016-08-08T11:29:36.115Z,330
2016-08-08T11:30:35.436Z,310
2016-08-08T11:31:35.419Z,310
2016-08-08T11:32:35.420Z,335
2016-08-08T11:33:35.416Z,305
2016-08-08T11:34:35.428Z,300
2016-08-08T11:35:35.502Z,310
2016-08-08T11:36:35.452Z,325
2016-08-08T11:37:35.451Z,325
2016-08-08T11:38:35.453Z,320
2016-08-08T11:39:35.481Z,310
2016-08-08T11:40:35.552Z,320
2016-08-08T11:41:36.194Z,320
2016-08-08T11:42:35.523Z,315
2016-08-08T11:43:35.498Z,305
2016-08-08T11:44:35.560Z,295
2016-08-08T11:45:35.572Z,295
2016-08-08T11:46:35.548Z,310
2016-08-08T11:47:36.242Z,320
2016-08-08T11:48:36.245Z,330
2016-08-08T11:49:35.550Z,330
2016-08-08T11:50:35.579Z,355
2016-08-08T11:51:35.552Z,365
2016-08-08T11:52:35.557Z,305
2016-08-08T11:53:35.615Z,315
2016-08-08T11:54:35.584Z,335
2016-08-08T11:55:35.618Z,295
2016-08-08T11:56:35.597Z,300
2016-08-08T11:57:35.618Z,295
2016-08-08T11:58:35.621Z,295
2016-08-08T11:59:36.334Z,290
2016-08-08T12:00:35.676Z,280
2016-08-08T12:01:35.620Z,285
2016-08-08T12:02:35.628Z,275
2016-08-08T12:03:35.634Z,270
2016-08-08T12:04:35.645Z,275
2016-08-08T12:05:35.699Z,305
2016-08-08T12:06:35.660Z,310
2016-08-08T12:07:35.693Z,270
2016-08-08T12:08:36.394Z,330
2016-08-08T12:09:35.679Z,310
2016-08-08T12:10:35.705Z,310
2016-08-08T12:11:35.692Z,360
2016-08-08T12:12:35.702Z,335
2016-08-08T12:13:35.705Z,335
2016-08-08T12:14:35.711Z,375
2016-08-08T12:15:35.779Z,380
2016-08-08T12:16:35.730Z,385
2016-08-08T12:17:35.747Z,375
2016-08-08T12:18:35.749Z,330
2016-08-08T12:19:35.768Z,320
2016-08-08T12:20:35.854Z,335
2016-08-08T12:21:35.775Z,365
2016-08-08T12:22:35.773Z,335
2016-08-08T12:23:35.789Z,340
2016-08-08T12:24:35.798Z,325
2016-08-08T12:25:35.815Z,320
2016-08-08T12:26:35.807Z,340
2016-08-08T12:27:35.812Z,340
2016-08-08T12:28:35.835Z,320
2016-08-08T12:29:35.842Z,335
2016-08-08T12:30:35.906Z,290
2016-08-08T12:31:35.840Z,285
2016-08-08T12:32:35.851Z,285
2016-08-08T12:33:35.876Z,300
2016-08-08T12:34:35.862Z,335
2016-08-08T12:35:35.977Z,315
2016-08-08T12:36:35.887Z,310
2016-08-08T12:37:35.891Z,310
2016-08-08T12:38:36.606Z,270
2016-08-08T12:39:35.896Z,260
2016-08-08T12:40:35.937Z,265
2016-08-08T12:41:35.907Z,265
2016-08-08T12:42:35.923Z,270
2016-08-08T12:43:35.919Z,275
2016-08-08T12:44:35.938Z,275
2016-08-08T12:45:36.013Z,285
2016-08-08T12:46:35.946Z,295
2016-08-08T12:47:35.964Z,320
2016-08-08T12:48:36.679Z,330
2016-08-08T12:49:35.967Z,310
2016-08-08T12:50:36.041Z,305
2016-08-08T12:51:35.979Z,300
2016-08-08T12:52:35.984Z,295
2016-08-08T12:53:36.152Z,290
2016-08-08T12:54:36.005Z,280
2016-08-08T12:55:36.022Z,280
2016-08-08T12:56:36.012Z,300
2016-08-08T12:57:36.024Z,275
2016-08-08T12:58:36.054Z,285
2016-08-08T12:59:36.053Z,290
2016-08-08T13:00:36.057Z,330
2016-08-08T13:01:36.058Z,330
2016-08-08T13:02:36.055Z,335
2016-08-08T13:03:36.085Z,295
2016-08-08T13:04:36.073Z,280
2016-08-08T13:05:36.095Z,270
2016-08-08T13:06:36.087Z,265
2016-08-08T13:07:36.112Z,305
2016-08-08T13:08:36.119Z,305
2016-08-08T13:09:36.117Z,315
2016-08-08T13:10:36.186Z,290
2016-08-08T13:11:36.126Z,295
2016-08-08T13:12:36.132Z,300
2016-08-08T13:13:36.148Z,290
2016-08-08T13:14:36.862Z,275
2016-08-08T13:15:36.170Z,270
2016-08-08T13:16:36.156Z,280
2016-08-08T13:17:36.155Z,280
2016-08-08T13:18:36.874Z,285
2016-08-08T13:19:36.894Z,295
2016-08-08T13:20:36.927Z,295
2016-08-08T13:21:36.195Z,285
2016-08-08T13:22:36.199Z,280
2016-08-08T13:23:36.205Z,280
2016-08-08T13:24:36.227Z,285
2016-08-08T13:25:36.284Z,325
2016-08-08T13:26:36.222Z,290
2016-08-08T13:27:36.231Z,295
2016-08-08T13:28:36.248Z,290
2016-08-08T13:29:36.262Z,270
2016-08-08T13:30:36.307Z,260
2016-08-08T13:31:36.271Z,260
2016-08-08T13:32:36.268Z,270
2016-08-08T13:33:36.277Z,280
2016-08-08T13:34:36.312Z,275
2016-08-08T13:35:36.382Z,270
2016-08-08T13:36:36.292Z,265
2016-08-08T13:37:36.311Z,300
2016-08-08T13:38:36.310Z,300
2016-08-08T13:39:36.316Z,280
2016-08-08T13:40:36.335Z,270
2016-08-08T13:41:36.327Z,270
2016-08-08T13:42:36.331Z,230
2016-08-08T13:43:36.340Z,215
2016-08-08T13:44:37.074Z,210
2016-08-08T13:45:36.402Z,215
2016-08-08T13:46:36.352Z,230
2016-08-08T13:47:36.371Z,220
2016-08-08T13:48:37.106Z,210
2016-08-08T13:49:36.376Z,205
2016-08-08T13:50:36.400Z,200
2016-08-08T13:51:36.385Z,200
2016-08-08T13:52:36.411Z,205
2016-08-08T13:53:36.441Z,200
2016-08-08T13:54:36.395Z,200
2016-08-08T13:55:37.229Z,205
2016-08-08T13:56:36.447Z,205
2016-08-08T13:57:36.437Z,210
2016-08-08T13:58:36.433Z,215
2016-08-08T13:59:36.436Z,230
2016-08-08T14:00:36.447Z,240
2016-08-08T14:01:36.443Z,245
2016-08-08T14:02:36.453Z,240
2016-08-08T14:03:36.454Z,245
2016-08-08T14:04:36.474Z,250
2016-08-08T14:05:36.503Z,250
2016-08-08T14:06:37.181Z,255
2016-08-08T14:07:36.474Z,270
2016-08-08T14:08:36.497Z,265
2016-08-08T14:09:36.495Z,260
2016-08-08T14:10:36.619Z,255
2016-08-08T14:11:36.514Z,260
2016-08-08T14:12:36.518Z,255
2016-08-08T14:13:36.520Z,245
2016-08-08T14:14:36.535Z,235
2016-08-08T14:15:36.597Z,255
2016-08-08T14:16:36.554Z,245